sensor_id;sensor_type;location;lat;lon;timestamp;pressure;altitude;pressure_sealevel;temperature;humidity
46534;BME280;32260;52.008;4.752;2023-06-22T00:00:46;102050.97;;;20.92;61.05
46534;BME280;32260;52.008;4.752;2023-06-22T00:03:12;102045.72;;;20.89;61.39
46534;BME280;32260;52.008;4.752;2023-06-22T00:05:39;102053.84;;;20.87;61.35
46534;BME280;32260;52.008;4.752;2023-06-22T00:08:05;102047.69;;;20.85;61.66
46534;BME280;32260;52.008;4.752;2023-06-22T00:10:31;102046.75;;;20.86;59.70
46534;BME280;32260;52.008;4.752;2023-06-22T00:12:57;102045.84;;;20.85;61.81
46534;BME280;32260;52.008;4.752;2023-06-22T00:15:23;102042.22;;;20.87;61.00
46534;BME280;32260;52.008;4.752;2023-06-22T00:17:50;102040.38;;;20.87;60.30
46534;BME280;32260;52.008;4.752;2023-06-22T00:20:17;102037.75;;;20.85;60.62
46534;BME280;32260;52.008;4.752;2023-06-22T00:22:44;102036.94;;;20.83;61.37
46534;BME280;32260;52.008;4.752;2023-06-22T00:25:11;102035.25;;;20.81;60.40
46534;BME280;32260;52.008;4.752;2023-06-22T00:27:37;102034.47;;;20.79;61.34
46534;BME280;32260;52.008;4.752;2023-06-22T00:30:04;102032.72;;;20.78;61.27
46534;BME280;32260;52.008;4.752;2023-06-22T00:32:30;102025.59;;;20.77;60.45
46534;BME280;32260;52.008;4.752;2023-06-22T00:34:56;102021.22;;;20.74;60.87
46534;BME280;32260;52.008;4.752;2023-06-22T00:37:22;102017.69;;;20.72;60.29
46534;BME280;32260;52.008;4.752;2023-06-22T00:39:51;102018.66;;;20.71;61.38
46534;BME280;32260;52.008;4.752;2023-06-22T00:42:17;102019.53;;;20.72;60.60
46534;BME280;32260;52.008;4.752;2023-06-22T00:44:44;102012.34;;;20.71;61.19
46534;BME280;32260;52.008;4.752;2023-06-22T00:47:12;102013.28;;;20.69;61.63
46534;BME280;32260;52.008;4.752;2023-06-22T00:49:39;102006.16;;;20.68;61.99
46534;BME280;32260;52.008;4.752;2023-06-22T00:52:06;102009.81;;;20.67;61.06
46534;BME280;32260;52.008;4.752;2023-06-22T00:54:41;102009.81;;;20.67;61.67
46534;BME280;32260;52.008;4.752;2023-06-22T00:57:14;102009.81;;;20.67;61.26
46534;BME280;32260;52.008;4.752;2023-06-22T00:59:43;102017.94;;;20.66;60.41
46534;BME280;32260;52.008;4.752;2023-06-22T01:02:10;102015.31;;;20.64;61.50
46534;BME280;32260;52.008;4.752;2023-06-22T01:04:38;102010.00;;;20.63;61.28
46534;BME280;32260;52.008;4.752;2023-06-22T01:07:28;102006.16;;;20.68;60.62
46534;BME280;32260;52.008;4.752;2023-06-22T01:12:52;102000.09;;;20.63;60.91
46534;BME280;32260;52.008;4.752;2023-06-22T01:15:40;102000.75;;;20.68;60.94
46534;BME280;32260;52.008;4.752;2023-06-22T01:18:09;101999.31;;;20.61;60.54
46534;BME280;32260;52.008;4.752;2023-06-22T01:20:36;102003.00;;;20.59;61.31
46534;BME280;32260;52.008;4.752;2023-06-22T01:23:26;101990.28;;;20.62;61.24
46534;BME280;32260;52.008;4.752;2023-06-22T01:28:57;102004.13;;;20.53;61.14
46534;BME280;32260;52.008;4.752;2023-06-22T01:31:27;101997.06;;;20.50;61.63
46534;BME280;32260;52.008;4.752;2023-06-22T01:34:00;101999.03;;;20.47;60.78
46534;BME280;32260;52.008;4.752;2023-06-22T01:36:27;101999.97;;;20.46;61.17
46534;BME280;32260;52.008;4.752;2023-06-22T01:38:57;102004.47;;;20.45;62.10
46534;BME280;32260;52.008;4.752;2023-06-22T01:41:26;102008.97;;;20.45;62.04
46534;BME280;32260;52.008;4.752;2023-06-22T01:43:54;102001.03;;;20.42;61.39
46534;BME280;32260;52.008;4.752;2023-06-22T01:46:22;101992.22;;;20.38;61.70
46534;BME280;32260;52.008;4.752;2023-06-22T01:48:49;101993.31;;;20.34;62.04
46534;BME280;32260;52.008;4.752;2023-06-22T01:51:16;102000.47;;;20.33;62.68
46534;BME280;32260;52.008;4.752;2023-06-22T01:53:42;101998.72;;;20.32;63.03
46534;BME280;32260;52.008;4.752;2023-06-22T01:56:09;101996.09;;;20.31;62.02
46534;BME280;32260;52.008;4.752;2023-06-22T01:58:40;101995.25;;;20.30;63.44
46534;BME280;32260;52.008;4.752;2023-06-22T02:01:12;101989.03;;;20.28;63.31
46534;BME280;32260;52.008;4.752;2023-06-22T02:03:43;101994.44;;;20.28;62.88
46534;BME280;32260;52.008;4.752;2023-06-22T02:06:17;101991.81;;;20.27;63.37
46534;BME280;32260;52.008;4.752;2023-06-22T02:08:48;101999.13;;;20.23;62.39
46534;BME280;32260;52.008;4.752;2023-06-22T02:11:18;102005.59;;;20.19;63.46
46534;BME280;32260;52.008;4.752;2023-06-22T02:13:45;102002.16;;;20.15;63.51
46534;BME280;32260;52.008;4.752;2023-06-22T02:16:12;101988.78;;;20.14;63.83
46534;BME280;32260;52.008;4.752;2023-06-22T02:18:39;101991.47;;;20.14;64.00
46534;BME280;32260;52.008;4.752;2023-06-22T02:21:11;101987.94;;;20.12;63.72
46534;BME280;32260;52.008;4.752;2023-06-22T02:23:37;101987.13;;;20.10;63.49
46534;BME280;32260;52.008;4.752;2023-06-22T02:26:04;101984.44;;;20.10;63.64
46534;BME280;32260;52.008;4.752;2023-06-22T02:28:30;101978.28;;;20.08;63.85
46534;BME280;32260;52.008;4.752;2023-06-22T02:30:56;101983.75;;;20.04;64.82
46534;BME280;32260;52.008;4.752;2023-06-22T02:33:22;101978.38;;;20.04;63.94
46534;BME280;32260;52.008;4.752;2023-06-22T02:35:48;101975.69;;;20.04;63.68
46534;BME280;32260;52.008;4.752;2023-06-22T02:38:15;101978.38;;;20.04;63.81
46534;BME280;32260;52.008;4.752;2023-06-22T02:40:41;101982.91;;;20.04;63.77
46534;BME280;32260;52.008;4.752;2023-06-22T02:43:07;101985.59;;;20.04;64.10
46534;BME280;32260;52.008;4.752;2023-06-22T02:45:33;101983.75;;;20.04;63.81
46534;BME280;32260;52.008;4.752;2023-06-22T02:47:59;101989.16;;;20.04;63.65
46534;BME280;32260;52.008;4.752;2023-06-22T02:50:26;101984.69;;;20.03;63.28
46534;BME280;32260;52.008;4.752;2023-06-22T02:52:52;101986.53;;;20.03;63.72
46534;BME280;32260;52.008;4.752;2023-06-22T02:55:18;101989.28;;;20.01;64.48
46534;BME280;32260;52.008;4.752;2023-06-22T02:57:44;101987.53;;;20.00;64.05
46534;BME280;32260;52.008;4.752;2023-06-22T03:00:13;101999.22;;;19.99;63.75
46534;BME280;32260;52.008;4.752;2023-06-22T03:02:47;102000.97;;;20.00;64.11
46534;BME280;32260;52.008;4.752;2023-06-22T03:05:14;101999.41;;;19.95;64.89
46534;BME280;32260;52.008;4.752;2023-06-22T03:07:41;101993.16;;;19.94;64.61
46534;BME280;32260;52.008;4.752;2023-06-22T03:10:10;101994.97;;;19.94;64.78
46534;BME280;32260;52.008;4.752;2023-06-22T03:12:37;101997.78;;;19.91;65.36
46534;BME280;32260;52.008;4.752;2023-06-22T03:15:05;101996.97;;;19.88;64.83
46534;BME280;32260;52.008;4.752;2023-06-22T03:17:31;101989.03;;;19.85;64.31
46534;BME280;32260;52.008;4.752;2023-06-22T03:19:58;101976.53;;;19.84;64.50
46534;BME280;32260;52.008;4.752;2023-06-22T03:22:24;101973.91;;;19.83;63.97
46534;BME280;32260;52.008;4.752;2023-06-22T03:24:50;101972.19;;;19.80;64.90
46534;BME280;32260;52.008;4.752;2023-06-22T03:27:16;101964.22;;;19.77;65.15
46534;BME280;32260;52.008;4.752;2023-06-22T03:29:42;101957.16;;;19.75;64.42
46534;BME280;32260;52.008;4.752;2023-06-22T03:32:08;101961.72;;;19.72;64.83
46534;BME280;32260;52.008;4.752;2023-06-22T03:34:34;101960.94;;;19.70;64.90
46534;BME280;32260;52.008;4.752;2023-06-22T03:37:01;101967.25;;;19.69;65.99
46534;BME280;32260;52.008;4.752;2023-06-22T03:39:28;101968.09;;;19.70;64.85
46534;BME280;32260;52.008;4.752;2023-06-22T03:41:55;101961.00;;;19.69;65.03
46534;BME280;32260;52.008;4.752;2023-06-22T03:44:21;101955.63;;;19.69;65.79
46534;BME280;32260;52.008;4.752;2023-06-22T03:46:47;101955.63;;;19.69;65.53
46534;BME280;32260;52.008;4.752;2023-06-22T03:49:13;101955.63;;;19.69;66.14
46534;BME280;32260;52.008;4.752;2023-06-22T03:51:39;101959.16;;;19.69;66.14
46534;BME280;32260;52.008;4.752;2023-06-22T03:54:05;101950.25;;;19.69;66.01
46534;BME280;32260;52.008;4.752;2023-06-22T03:56:31;101951.97;;;19.70;65.75
46534;BME280;32260;52.008;4.752;2023-06-22T03:58:57;101959.03;;;19.72;66.08
46534;BME280;32260;52.008;4.752;2023-06-22T04:01:23;101952.72;;;19.73;65.50
46534;BME280;32260;52.008;4.752;2023-06-22T04:03:49;101945.53;;;19.74;65.72
46534;BME280;32260;52.008;4.752;2023-06-22T04:06:16;101948.16;;;19.76;65.56
46534;BME280;32260;52.008;4.752;2023-06-22T04:08:42;101947.22;;;19.77;65.45
46534;BME280;32260;52.008;4.752;2023-06-22T04:11:08;101946.28;;;19.78;65.86
46534;BME280;32260;52.008;4.752;2023-06-22T04:13:34;101943.47;;;19.81;65.46
46534;BME280;32260;52.008;4.752;2023-06-22T04:16:00;101941.63;;;19.83;66.24
46534;BME280;32260;52.008;4.752;2023-06-22T04:18:27;101939.72;;;19.85;65.51
46534;BME280;32260;52.008;4.752;2023-06-22T04:20:53;101937.88;;;19.87;65.69
46534;BME280;32260;52.008;4.752;2023-06-22T04:23:19;101938.63;;;19.91;65.89
46534;BME280;32260;52.008;4.752;2023-06-22T04:25:45;101941.22;;;19.92;65.92
46534;BME280;32260;52.008;4.752;2023-06-22T04:28:11;101934.84;;;19.95;65.80
46534;BME280;32260;52.008;4.752;2023-06-22T04:30:38;101948.13;;;19.99;65.70
46534;BME280;32260;52.008;4.752;2023-06-22T04:33:14;101939.03;;;20.02;66.42
46534;BME280;32260;52.008;4.752;2023-06-22T04:35:40;101943.41;;;20.04;66.55
46534;BME280;32260;52.008;4.752;2023-06-22T04:38:07;101946.00;;;20.08;66.76
46534;BME280;32260;52.008;4.752;2023-06-22T04:40:34;101953.84;;;20.12;66.26
46534;BME280;32260;52.008;4.752;2023-06-22T04:43:00;101951.91;;;20.16;66.28
46534;BME280;32260;52.008;4.752;2023-06-22T04:45:29;101950.84;;;20.20;66.63
46534;BME280;32260;52.008;4.752;2023-06-22T04:47:55;101959.72;;;20.22;66.37
46534;BME280;32260;52.008;4.752;2023-06-22T04:50:21;101955.97;;;20.26;65.85
46534;BME280;32260;52.008;4.752;2023-06-22T04:52:50;101962.06;;;20.30;66.48
46534;BME280;32260;52.008;4.752;2023-06-22T04:55:16;101969.94;;;20.34;66.85
46534;BME280;32260;52.008;4.752;2023-06-22T04:57:45;101956.41;;;20.36;66.28
46534;BME280;32260;52.008;4.752;2023-06-22T05:00:16;101956.28;;;20.39;66.24
46534;BME280;32260;52.008;4.752;2023-06-22T05:02:44;101951.66;;;20.43;67.22
46534;BME280;32260;52.008;4.752;2023-06-22T05:05:11;101948.03;;;20.44;66.92
46534;BME280;32260;52.008;4.752;2023-06-22T05:07:44;101955.00;;;20.48;66.90
46534;BME280;32260;52.008;4.752;2023-06-22T05:10:11;101959.47;;;20.49;66.95
46534;BME280;32260;52.008;4.752;2023-06-22T05:12:39;101961.13;;;20.51;66.17
46534;BME280;32260;52.008;4.752;2023-06-22T05:15:06;101958.25;;;20.56;66.51
46534;BME280;32260;52.008;4.752;2023-06-22T05:17:33;101958.97;;;20.60;66.53
46534;BME280;32260;52.008;4.752;2023-06-22T05:19:59;101955.28;;;20.62;66.24
46534;BME280;32260;52.008;4.752;2023-06-22T05:22:25;101953.25;;;20.67;65.53
46534;BME280;32260;52.008;4.752;2023-06-22T05:24:51;101965.72;;;20.70;64.92
46534;BME280;32260;52.008;4.752;2023-06-22T05:27:18;101954.88;;;20.72;65.34
46534;BME280;32260;52.008;4.752;2023-06-22T05:29:44;101953.69;;;20.79;65.69
46534;BME280;32260;52.008;4.752;2023-06-22T05:32:10;101951.47;;;20.87;65.45
46534;BME280;32260;52.008;4.752;2023-06-22T05:34:36;101956.47;;;20.96;65.33
46534;BME280;32260;52.008;4.752;2023-06-22T05:37:03;101953.34;;;21.06;65.84
46534;BME280;32260;52.008;4.752;2023-06-22T05:39:29;101943.94;;;21.14;65.73
46534;BME280;32260;52.008;4.752;2023-06-22T05:41:55;101950.06;;;21.18;67.07
46534;BME280;32260;52.008;4.752;2023-06-22T05:44:21;101947.06;;;21.24;65.95
46534;BME280;32260;52.008;4.752;2023-06-22T05:46:47;101954.22;;;21.25;66.07
46534;BME280;32260;52.008;4.752;2023-06-22T05:49:14;101953.00;;;21.32;64.88
46534;BME280;32260;52.008;4.752;2023-06-22T05:51:41;101951.81;;;21.38;65.43
46534;BME280;32260;52.008;4.752;2023-06-22T05:54:08;101956.91;;;21.44;65.10
46534;BME280;32260;52.008;4.752;2023-06-22T05:56:34;101951.22;;;21.50;65.47
46534;BME280;32260;52.008;4.752;2023-06-22T05:59:00;101950.94;;;21.57;65.24
46534;BME280;32260;52.008;4.752;2023-06-22T06:01:27;101952.47;;;21.62;65.49
46534;BME280;32260;52.008;4.752;2023-06-22T06:03:53;101960.09;;;21.72;65.29
46534;BME280;32260;52.008;4.752;2023-06-22T06:06:19;101954.41;;;21.78;65.30
46534;BME280;32260;52.008;4.752;2023-06-22T06:08:47;101955.00;;;21.85;64.96
46534;BME280;32260;52.008;4.752;2023-06-22T06:11:14;101954.75;;;21.89;64.83
46534;BME280;32260;52.008;4.752;2023-06-22T06:13:40;101951.91;;;21.92;64.46
46534;BME280;32260;52.008;4.752;2023-06-22T06:16:06;101944.44;;;21.97;64.45
46534;BME280;32260;52.008;4.752;2023-06-22T06:18:32;101942.31;;;22.04;64.45
46534;BME280;32260;52.008;4.752;2023-06-22T06:20:58;101941.94;;;22.12;64.16
46534;BME280;32260;52.008;4.752;2023-06-22T06:23:24;101937.09;;;22.19;64.27
46534;BME280;32260;52.008;4.752;2023-06-22T06:25:50;101942.00;;;22.28;64.20
46534;BME280;32260;52.008;4.752;2023-06-22T06:28:16;101947.81;;;22.38;64.11
46534;BME280;32260;52.008;4.752;2023-06-22T06:30:42;101938.34;;;22.46;63.74
46534;BME280;32260;52.008;4.752;2023-06-22T06:33:08;101934.28;;;22.55;63.98
46534;BME280;32260;52.008;4.752;2023-06-22T06:35:35;101932.94;;;22.64;63.87
46534;BME280;32260;52.008;4.752;2023-06-22T06:38:01;101927.03;;;22.73;63.17
46534;BME280;32260;52.008;4.752;2023-06-22T06:40:28;101918.50;;;22.81;62.65
46534;BME280;32260;52.008;4.752;2023-06-22T06:42:54;101916.28;;;22.89;62.65
46534;BME280;32260;52.008;4.752;2023-06-22T06:45:23;101915.75;;;22.99;62.62
46534;BME280;32260;52.008;4.752;2023-06-22T06:47:51;101918.72;;;23.10;62.57
46534;BME280;32260;52.008;4.752;2023-06-22T06:50:17;101919.22;;;23.18;61.97
46534;BME280;32260;52.008;4.752;2023-06-22T06:52:44;101917.81;;;23.27;61.96
46534;BME280;32260;52.008;4.752;2023-06-22T06:55:10;101917.38;;;23.35;62.00
46534;BME280;32260;52.008;4.752;2023-06-22T06:57:38;101924.19;;;23.42;61.78
46534;BME280;32260;52.008;4.752;2023-06-22T07:00:08;101919.38;;;23.47;61.40
46534;BME280;32260;52.008;4.752;2023-06-22T07:02:38;101920.16;;;23.49;61.28
46534;BME280;32260;52.008;4.752;2023-06-22T07:05:05;101910.09;;;23.51;61.23
46534;BME280;32260;52.008;4.752;2023-06-22T07:07:32;101918.06;;;23.54;61.08
46534;BME280;32260;52.008;4.752;2023-06-22T07:09:59;101905.34;;;23.56;61.14
46534;BME280;32260;52.008;4.752;2023-06-22T07:12:25;101900.53;;;23.62;60.90
46534;BME280;32260;52.008;4.752;2023-06-22T07:14:52;101903.03;;;23.65;60.30
46534;BME280;32260;52.008;4.752;2023-06-22T07:17:18;101904.69;;;23.67;60.17
46534;BME280;32260;52.008;4.752;2023-06-22T07:19:45;101899.97;;;23.71;59.75
46534;BME280;32260;52.008;4.752;2023-06-22T07:22:11;101890.63;;;23.77;60.04
46534;BME280;32260;52.008;4.752;2023-06-22T07:24:37;101887.72;;;23.80;60.08
46534;BME280;32260;52.008;4.752;2023-06-22T07:27:04;101891.03;;;23.85;60.03
46534;BME280;32260;52.008;4.752;2023-06-22T07:29:32;101886.94;;;23.94;59.73
46534;BME280;32260;52.008;4.752;2023-06-22T07:31:59;101888.66;;;23.95;59.27
46534;BME280;32260;52.008;4.752;2023-06-22T07:34:26;101891.81;;;24.03;59.40
46534;BME280;32260;52.008;4.752;2023-06-22T07:36:52;101901.38;;;24.09;59.20
46534;BME280;32260;52.008;4.752;2023-06-22T07:39:19;101900.25;;;24.13;59.02
46534;BME280;32260;52.008;4.752;2023-06-22T07:41:48;101901.78;;;24.17;58.26
46534;BME280;32260;52.008;4.752;2023-06-22T07:44:14;101896.97;;;24.22;57.98
46534;BME280;32260;52.008;4.752;2023-06-22T07:46:40;101893.78;;;24.30;57.97
46534;BME280;32260;52.008;4.752;2023-06-22T07:49:06;101887.97;;;24.36;58.82
46534;BME280;32260;52.008;4.752;2023-06-22T07:51:34;101873.66;;;24.48;58.47
46534;BME280;32260;52.008;4.752;2023-06-22T07:54:00;101876.88;;;24.55;58.35
46534;BME280;32260;52.008;4.752;2023-06-22T07:56:26;101873.69;;;24.63;58.28
46534;BME280;32260;52.008;4.752;2023-06-22T07:58:52;101866.16;;;24.68;58.72
46534;BME280;32260;52.008;4.752;2023-06-22T08:01:19;101872.94;;;24.75;58.53
46534;BME280;32260;52.008;4.752;2023-06-22T08:03:48;101869.63;;;24.84;58.58
46534;BME280;32260;52.008;4.752;2023-06-22T08:06:14;101861.78;;;24.94;58.63
46534;BME280;32260;52.008;4.752;2023-06-22T08:08:40;101867.34;;;25.06;58.46
46534;BME280;32260;52.008;4.752;2023-06-22T08:11:08;101860.34;;;25.16;58.03
46534;BME280;32260;52.008;4.752;2023-06-22T08:13:35;101862.03;;;25.18;57.24
46534;BME280;32260;52.008;4.752;2023-06-22T08:16:01;101850.94;;;25.22;57.81
46534;BME280;32260;52.008;4.752;2023-06-22T08:18:27;101845.41;;;25.23;57.50
46534;BME280;32260;52.008;4.752;2023-06-22T08:20:54;101849.16;;;25.35;57.62
46534;BME280;32260;52.008;4.752;2023-06-22T08:23:20;101844.13;;;25.43;57.36
46534;BME280;32260;52.008;4.752;2023-06-22T08:25:46;101843.81;;;25.48;57.33
46534;BME280;32260;52.008;4.752;2023-06-22T08:28:13;101842.31;;;25.57;56.78
46534;BME280;32260;52.008;4.752;2023-06-22T08:30:40;101847.69;;;25.71;56.70
46534;BME280;32260;52.008;4.752;2023-06-22T08:33:06;101840.44;;;25.84;56.70
46534;BME280;32260;52.008;4.752;2023-06-22T08:35:32;101839.56;;;25.97;55.86
46534;BME280;32260;52.008;4.752;2023-06-22T08:37:58;101831.75;;;26.05;55.08
46534;BME280;32260;52.008;4.752;2023-06-22T08:40:26;101827.44;;;26.15;54.89
46534;BME280;32260;52.008;4.752;2023-06-22T08:42:52;101821.56;;;26.22;54.98
46534;BME280;32260;52.008;4.752;2023-06-22T08:45:18;101823.53;;;26.32;54.40
46534;BME280;32260;52.008;4.752;2023-06-22T08:47:44;101829.94;;;26.44;53.52
46534;BME280;32260;52.008;4.752;2023-06-22T08:50:12;101829.72;;;26.47;52.50
46534;BME280;32260;52.008;4.752;2023-06-22T08:52:39;101832.00;;;26.54;51.99
46534;BME280;32260;52.008;4.752;2023-06-22T08:55:07;101829.34;;;26.65;51.88
46534;BME280;32260;52.008;4.752;2023-06-22T08:57:34;101834.22;;;26.73;52.72
46534;BME280;32260;52.008;4.752;2023-06-22T09:00:04;101825.00;;;26.75;52.87
46534;BME280;32260;52.008;4.752;2023-06-22T09:02:31;101824.81;;;26.78;53.00
46534;BME280;32260;52.008;4.752;2023-06-22T09:04:57;101817.16;;;26.84;52.32
46534;BME280;32260;52.008;4.752;2023-06-22T09:07:24;101820.06;;;26.93;52.89
46534;BME280;32260;52.008;4.752;2023-06-22T09:09:51;101819.28;;;27.04;51.99
46534;BME280;32260;52.008;4.752;2023-06-22T09:12:20;101814.41;;;27.21;51.72
46534;BME280;32260;52.008;4.752;2023-06-22T09:14:51;101814.69;;;27.29;50.99
46534;BME280;32260;52.008;4.752;2023-06-22T09:17:17;101815.66;;;27.41;51.28
46534;BME280;32260;52.008;4.752;2023-06-22T09:19:43;101809.09;;;27.43;49.66
46534;BME280;32260;52.008;4.752;2023-06-22T09:22:09;101815.34;;;27.57;51.05
46534;BME280;32260;52.008;4.752;2023-06-22T09:24:35;101818.09;;;27.68;50.69
46534;BME280;32260;52.008;4.752;2023-06-22T09:27:02;101813.94;;;27.75;50.78
46534;BME280;32260;52.008;4.752;2023-06-22T09:29:28;101805.50;;;27.79;49.46
46534;BME280;32260;52.008;4.752;2023-06-22T09:31:54;101805.16;;;27.83;49.69
46534;BME280;32260;52.008;4.752;2023-06-22T09:34:21;101811.09;;;27.88;49.54
46534;BME280;32260;52.008;4.752;2023-06-22T09:36:48;101808.53;;;27.98;49.63
46534;BME280;32260;52.008;4.752;2023-06-22T09:39:14;101807.22;;;28.04;49.90
46534;BME280;32260;52.008;4.752;2023-06-22T09:41:40;101810.44;;;28.09;48.14
46534;BME280;32260;52.008;4.752;2023-06-22T09:44:06;101809.06;;;28.15;49.12
46534;BME280;32260;52.008;4.752;2023-06-22T09:46:32;101801.88;;;28.14;48.36
46534;BME280;32260;52.008;4.752;2023-06-22T09:48:58;101803.88;;;28.12;48.79
46534;BME280;32260;52.008;4.752;2023-06-22T09:51:24;101795.19;;;28.06;48.98
46534;BME280;32260;52.008;4.752;2023-06-22T09:53:51;101796.81;;;28.09;49.30
46534;BME280;32260;52.008;4.752;2023-06-22T09:56:18;101792.22;;;28.09;48.56
46534;BME280;32260;52.008;4.752;2023-06-22T09:58:45;101791.09;;;28.12;48.49
46534;BME280;32260;52.008;4.752;2023-06-22T10:01:12;101790.47;;;28.20;48.92
46534;BME280;32260;52.008;4.752;2023-06-22T10:03:40;101788.50;;;28.22;47.56
46534;BME280;32260;52.008;4.752;2023-06-22T10:06:07;101784.81;;;28.23;47.30
46534;BME280;32260;52.008;4.752;2023-06-22T10:08:35;101788.03;;;28.28;48.34
46534;BME280;32260;52.008;4.752;2023-06-22T10:11:02;101789.50;;;28.32;48.45
46534;BME280;32260;52.008;4.752;2023-06-22T10:13:28;101792.13;;;28.34;47.66
46534;BME280;32260;52.008;4.752;2023-06-22T10:15:54;101781.22;;;28.34;48.50
46534;BME280;32260;52.008;4.752;2023-06-22T10:18:21;101786.28;;;28.27;47.15
46534;BME280;32260;52.008;4.752;2023-06-22T10:20:49;101791.72;;;28.27;47.54
46534;BME280;32260;52.008;4.752;2023-06-22T10:23:17;101794.22;;;28.30;48.40
46534;BME280;32260;52.008;4.752;2023-06-22T10:25:43;101789.75;;;28.29;48.20
46534;BME280;32260;52.008;4.752;2023-06-22T10:28:09;101795.44;;;28.26;48.11
46534;BME280;32260;52.008;4.752;2023-06-22T10:30:35;101797.94;;;28.18;47.69
46534;BME280;32260;52.008;4.752;2023-06-22T10:33:02;101792.09;;;28.11;48.11
46534;BME280;32260;52.008;4.752;2023-06-22T10:35:28;101797.78;;;28.08;47.29
46534;BME280;32260;52.008;4.752;2023-06-22T10:37:54;101801.09;;;28.00;47.39
46534;BME280;32260;52.008;4.752;2023-06-22T10:40:20;101798.88;;;27.94;48.36
46534;BME280;32260;52.008;4.752;2023-06-22T10:42:46;101801.31;;;27.86;47.64
46534;BME280;32260;52.008;4.752;2023-06-22T10:45:12;101797.34;;;27.79;47.09
46534;BME280;32260;52.008;4.752;2023-06-22T10:47:39;101799.56;;;27.73;47.82
46534;BME280;32260;52.008;4.752;2023-06-22T10:50:08;101799.41;;;27.64;47.97
46534;BME280;32260;52.008;4.752;2023-06-22T10:52:34;101803.34;;;27.59;48.10
46534;BME280;32260;52.008;4.752;2023-06-22T10:55:00;101808.16;;;27.56;48.45
46534;BME280;32260;52.008;4.752;2023-06-22T10:57:26;101811.13;;;27.53;48.18
46534;BME280;32260;52.008;4.752;2023-06-22T10:59:52;101815.81;;;27.51;49.02
46534;BME280;32260;52.008;4.752;2023-06-22T11:02:18;101815.06;;;27.49;49.18
46534;BME280;32260;52.008;4.752;2023-06-22T11:04:44;101812.34;;;27.49;49.38
46534;BME280;32260;52.008;4.752;2023-06-22T11:07:12;101804.94;;;27.51;49.55
46534;BME280;32260;52.008;4.752;2023-06-22T11:09:38;101814.09;;;27.50;49.48
46534;BME280;32260;52.008;4.752;2023-06-22T11:12:06;101805.16;;;27.48;50.07
46534;BME280;32260;52.008;4.752;2023-06-22T11:14:32;101811.69;;;27.45;49.58
46534;BME280;32260;52.008;4.752;2023-06-22T11:16:59;101804.78;;;27.41;49.96
46534;BME280;32260;52.008;4.752;2023-06-22T11:19:25;101801.19;;;27.40;50.25
46534;BME280;32260;52.008;4.752;2023-06-22T11:21:51;101802.13;;;27.39;50.46
46534;BME280;32260;52.008;4.752;2023-06-22T11:24:18;101809.34;;;27.40;51.19
46534;BME280;32260;52.008;4.752;2023-06-22T11:26:44;101802.59;;;27.33;50.66
46534;BME280;32260;52.008;4.752;2023-06-22T11:29:10;101793.56;;;27.33;50.70
46534;BME280;32260;52.008;4.752;2023-06-22T11:31:36;101792.72;;;27.32;51.25
46534;BME280;32260;52.008;4.752;2023-06-22T11:34:03;101787.25;;;27.32;50.58
46534;BME280;32260;52.008;4.752;2023-06-22T11:36:29;101778.34;;;27.30;50.89
46534;BME280;32260;52.008;4.752;2023-06-22T11:38:58;101779.22;;;27.31;51.03
46534;BME280;32260;52.008;4.752;2023-06-22T11:41:24;101775.63;;;27.30;51.40
46534;BME280;32260;52.008;4.752;2023-06-22T11:43:50;101763.50;;;27.23;51.45
46534;BME280;32260;52.008;4.752;2023-06-22T11:46:17;101761.00;;;27.20;52.09
46534;BME280;32260;52.008;4.752;2023-06-22T11:48:43;101769.63;;;27.13;52.39
46534;BME280;32260;52.008;4.752;2023-06-22T11:51:09;101751.28;;;27.04;52.25
46534;BME280;32260;52.008;4.752;2023-06-22T11:53:35;101752.94;;;26.94;52.62
46534;BME280;32260;52.008;4.752;2023-06-22T11:56:02;101744.97;;;26.79;53.62
46534;BME280;32260;52.008;4.752;2023-06-22T11:58:28;101745.63;;;26.70;53.83
46534;BME280;32260;52.008;4.752;2023-06-22T12:00:54;101738.91;;;26.63;54.43
46534;BME280;32260;52.008;4.752;2023-06-22T12:03:20;101736.34;;;26.48;56.38
46534;BME280;32260;52.008;4.752;2023-06-22T12:05:49;101735.81;;;26.43;55.58
46534;BME280;32260;52.008;4.752;2023-06-22T12:08:15;101730.19;;;26.34;55.60
46534;BME280;32260;52.008;4.752;2023-06-22T12:10:41;101721.84;;;26.24;56.86
46534;BME280;32260;52.008;4.752;2023-06-22T12:13:10;101730.22;;;26.21;56.24
46534;BME280;32260;52.008;4.752;2023-06-22T12:15:36;101732.06;;;26.20;57.13
46534;BME280;32260;52.008;4.752;2023-06-22T12:18:02;101730.66;;;26.14;57.86
46534;BME280;32260;52.008;4.752;2023-06-22T12:20:29;101722.28;;;26.18;56.42
46534;BME280;32260;52.008;4.752;2023-06-22T12:22:55;101730.56;;;26.16;55.50
46534;BME280;32260;52.008;4.752;2023-06-22T12:25:23;101731.00;;;26.10;56.39
46534;BME280;32260;52.008;4.752;2023-06-22T12:27:50;101733.91;;;26.07;56.03
46534;BME280;32260;52.008;4.752;2023-06-22T12:30:17;101726.81;;;26.04;57.36
46534;BME280;32260;52.008;4.752;2023-06-22T12:32:43;101735.41;;;25.98;58.69
46534;BME280;32260;52.008;4.752;2023-06-22T12:35:09;101727.38;;;25.96;58.22
46534;BME280;32260;52.008;4.752;2023-06-22T12:37:40;101736.09;;;25.89;58.07
46534;BME280;32260;52.008;4.752;2023-06-22T12:40:07;101725.31;;;25.74;58.47
46534;BME280;32260;52.008;4.752;2023-06-22T12:42:34;101728.03;;;25.74;58.38
46534;BME280;32260;52.008;4.752;2023-06-22T12:45:00;101726.53;;;25.70;58.85
46534;BME280;32260;52.008;4.752;2023-06-22T12:47:26;101721.94;;;25.71;58.43
46534;BME280;32260;52.008;4.752;2023-06-22T12:49:52;101721.94;;;25.71;58.76
46534;BME280;32260;52.008;4.752;2023-06-22T12:52:18;101723.16;;;25.66;58.59
46534;BME280;32260;52.008;4.752;2023-06-22T12:54:44;101715.13;;;25.65;59.95